Time;durP1;ratioP1;P1;durP2;ratioP2;P2;SDS_P1;SDS_P2;PMS_P1;PMS_P2;Temp;Humidity;BMP_temperature;BMP_pressure;BME280_temperature;BME280_humidity;BME280_pressure;Samples;Min_cycle;Max_cycle;Signal;HPM_P1;HPM_P2
2021/12/22 00:02:13;;;;;;;;;;;;;;;-3.53;86.23;101253.31;4994526;28;19914;-77
2021/12/22 00:04:42;;;;;;;;;;;;;;;-3.46;85.68;101261.69;4994367;28;19913;-77
2021/12/22 00:07:08;;;;;;;;;;;;;;;-3.36;86.09;101261.94;4994244;28;19914;-77
2021/12/22 00:09:33;;;;;;;;;;;;;;;-3.43;86.34;101250.97;4993183;28;19918;-77
2021/12/22 00:11:58;;;;;;;;;;;;;;;-3.27;85.24;101259.59;4994444;28;19920;-76
2021/12/22 00:14:23;;;;;;;;;;;;;;;-3.15;85.37;101260.63;4993003;28;19920;-78
2021/12/22 00:16:48;;;;;;;;;;;;;;;-3.03;84.62;101258.97;4994781;28;19925;-76
2021/12/22 00:19:14;;;;;;;;;;;;;;;-3.10;85.42;101258.53;4994269;28;19948;-77
2021/12/22 00:21:39;;;;;;;;;;;;;;;-2.91;84.73;101263.50;4994282;28;19925;-77
2021/12/22 00:24:04;;;;;;;;;;;;;;;-2.85;83.34;101261.28;4994396;28;20282;-77
2021/12/22 00:26:29;;;;;;;;;;;;;;;-2.83;83.81;101258.56;4994164;28;20353;-77
2021/12/22 00:28:55;;;;;;;;;;;;;;;-2.85;82.61;101255.16;4994179;28;19945;-79
2021/12/22 00:31:21;;;;;;;;;;;;;;;-2.84;83.48;101254.22;4994264;28;19968;-77
2021/12/22 00:33:57;;;;;;;;;;;;;;;-2.92;83.05;101249.47;4994199;28;19914;-76
2021/12/22 00:36:32;;;;;;;;;;;;;;;-2.78;83.02;101253.84;4994210;28;20276;-76
2021/12/22 00:38:57;;;;;;;;;;;;;;;-2.86;82.92;101254.31;4994001;28;19949;-77
2021/12/22 00:41:23;;;;;;;;;;;;;;;-2.86;83.61;101256.97;4994097;28;20347;-77
2021/12/22 00:43:50;;;;;;;;;;;;;;;-2.99;82.69;101260.50;4994362;28;19960;-78
2021/12/22 00:46:18;;;;;;;;;;;;;;;-2.99;83.69;101263.13;4993363;28;20335;-77
2021/12/22 00:48:43;;;;;;;;;;;;;;;-2.94;84.21;101264.53;4976271;28;19913;-77
2021/12/22 00:51:08;;;;;;;;;;;;;;;-2.80;84.22;101250.44;4994192;28;19976;-78
2021/12/22 00:53:33;;;;;;;;;;;;;;;-2.58;83.10;101260.47;4992847;28;19941;-76
2021/12/22 00:55:59;;;;;;;;;;;;;;;-2.61;83.05;101253.59;4992446;28;19920;-77
2021/12/22 00:58:24;;;;;;;;;;;;;;;-2.55;82.14;101250.56;4993047;28;19917;-76
2021/12/22 01:00:49;;;;;;;;;;;;;;;-2.63;81.69;101252.84;4993986;28;19940;-76
2021/12/22 01:03:18;;;;;;;;;;;;;;;-2.60;82.55;101252.66;4976256;28;19917;-77
2021/12/22 01:05:43;;;;;;;;;;;;;;;-2.58;82.21;101248.13;4976453;28;19913;-78
2021/12/22 01:08:15;;;;;;;;;;;;;;;-2.65;82.11;101245.97;4995627;28;20009;-76
2021/12/22 01:10:41;;;;;;;;;;;;;;;-2.61;81.90;101256.22;4980612;28;19913;-77
2021/12/22 01:13:08;;;;;;;;;;;;;;;-2.57;81.10;101252.44;4997672;28;19913;-76
2021/12/22 01:15:35;;;;;;;;;;;;;;;-2.72;81.21;101247.34;4997582;28;19924;-77
2021/12/22 01:18:11;;;;;;;;;;;;;;;-2.86;81.11;101246.41;4998346;28;19940;-79
2021/12/22 01:21:01;;;;;;;;;;;;;;;-2.99;81.57;101247.31;4976792;28;19917;-77
2021/12/22 01:23:26;;;;;;;;;;;;;;;-3.03;82.27;101256.34;4977759;28;19945;-77
2021/12/22 01:25:52;;;;;;;;;;;;;;;-3.12;81.96;101263.06;4977535;28;19957;-78
2021/12/22 01:28:22;;;;;;;;;;;;;;;-3.10;81.81;101262.97;4977767;28;19913;-78
2021/12/22 01:30:48;;;;;;;;;;;;;;;-3.12;83.03;101264.84;4992637;28;19921;-77
2021/12/22 01:33:17;;;;;;;;;;;;;;;-3.03;83.61;101267.75;4978196;28;19929;-77
2021/12/22 01:35:43;;;;;;;;;;;;;;;-2.91;82.62;101260.84;4977846;28;19918;-76
2021/12/22 01:38:09;;;;;;;;;;;;;;;-2.93;82.36;101260.94;4977710;28;19914;-76
2021/12/22 01:40:36;;;;;;;;;;;;;;;-2.90;82.53;101252.00;4977576;28;19921;-77
2021/12/22 01:43:05;;;;;;;;;;;;;;;-2.97;81.64;101254.19;4977608;28;20365;-76
2021/12/22 01:51:50;;;;;;;;;;;;;;;-3.18;83.18;101269.56;4975791;28;19944;-77
2021/12/22 01:54:21;;;;;;;;;;;;;;;-2.98;83.76;101267.44;4977365;28;19977;-77
2021/12/22 01:56:47;;;;;;;;;;;;;;;-2.96;83.17;101271.69;4977527;28;19953;-77
2021/12/22 01:59:14;;;;;;;;;;;;;;;-2.91;83.76;101272.25;4976206;28;19968;-78
2021/12/22 02:01:40;;;;;;;;;;;;;;;-2.81;83.19;101268.06;4977234;28;20292;-77
2021/12/22 02:04:10;;;;;;;;;;;;;;;-2.70;82.82;101277.94;4975015;28;19918;-77
2021/12/22 02:06:35;;;;;;;;;;;;;;;-2.67;82.31;101280.34;4975635;28;19987;-78
2021/12/22 02:09:08;;;;;;;;;;;;;;;-2.64;81.51;101277.53;4976899;28;20424;-79
2021/12/22 02:11:33;;;;;;;;;;;;;;;-2.64;81.93;101277.53;4977145;28;19918;-77
2021/12/22 02:14:00;;;;;;;;;;;;;;;-2.67;81.30;101277.72;4992181;28;19914;-77
2021/12/22 02:16:29;;;;;;;;;;;;;;;-2.58;81.36;101277.13;4977313;28;20288;-77
2021/12/22 02:18:55;;;;;;;;;;;;;;;-2.66;81.19;101268.00;4976826;28;19914;-77
2021/12/22 02:21:22;;;;;;;;;;;;;;;-2.69;81.45;101261.19;4989621;28;20017;-77
2021/12/22 02:23:48;;;;;;;;;;;;;;;-2.60;81.68;101267.63;4996368;28;19913;-77
2021/12/22 02:26:22;;;;;;;;;;;;;;;-2.58;80.84;101263.09;4995894;28;20372;-77
2021/12/22 02:28:56;;;;;;;;;;;;;;;-2.53;81.43;101268.94;4996386;28;19940;-77
2021/12/22 02:31:21;;;;;;;;;;;;;;;-2.60;81.64;101251.78;4995860;28;19956;-76
2021/12/22 02:33:49;;;;;;;;;;;;;;;-2.56;80.32;101258.56;4996002;28;19968;-77
2021/12/22 02:38:47;;;;;;;;;;;;;;;-2.79;80.41;101249.50;4995641;28;19918;-76
2021/12/22 02:41:14;;;;;;;;;;;;;;;-2.93;81.16;101246.91;4996179;28;19918;-76
2021/12/22 02:43:50;;;;;;;;;;;;;;;-2.90;81.22;101249.38;4995869;28;19922;-76
2021/12/22 02:46:18;;;;;;;;;;;;;;;-3.05;80.94;101245.94;4995758;28;19983;-77
2021/12/22 02:48:44;;;;;;;;;;;;;;;-3.04;81.15;101247.59;4995542;28;20020;-76
2021/12/22 02:51:10;;;;;;;;;;;;;;;-3.02;81.25;101248.34;4996187;28;19960;-76
2021/12/22 03:04:03;;;;;;;;;;;;;;;-3.30;82.13;101257.16;4995596;28;20005;-78
2021/12/22 03:06:35;;;;;;;;;;;;;;;-3.19;82.59;101245.94;4977892;28;19914;-78
2021/12/22 03:09:14;;;;;;;;;;;;;;;-3.29;82.24;101248.31;4995285;28;19961;-77
2021/12/22 03:11:39;;;;;;;;;;;;;;;-3.33;83.16;101249.44;4995187;28;20330;-77
2021/12/22 03:14:04;;;;;;;;;;;;;;;-3.07;81.20;101242.53;4995115;28;20016;-77
2021/12/22 03:16:29;;;;;;;;;;;;;;;-3.10;82.24;101245.38;4977881;28;19936;-77
2021/12/22 03:18:55;;;;;;;;;;;;;;;-3.20;81.72;101242.44;4995032;28;19917;-77
2021/12/22 03:21:22;;;;;;;;;;;;;;;-3.04;81.87;101244.09;4994974;28;19976;-77
2021/12/22 03:23:50;;;;;;;;;;;;;;;-3.04;81.55;101244.94;4995043;28;20284;-77
2021/12/22 03:26:17;;;;;;;;;;;;;;;-3.15;81.69;101239.53;4977362;28;19922;-77
2021/12/22 03:28:44;;;;;;;;;;;;;;;-3.18;80.67;101237.94;4977759;28;19914;-76
2021/12/22 03:31:09;;;;;;;;;;;;;;;-3.11;81.58;101234.91;4994262;28;19914;-77
2021/12/22 03:33:41;;;;;;;;;;;;;;;-2.93;81.75;101236.38;4994774;28;19925;-77
2021/12/22 03:36:07;;;;;;;;;;;;;;;-2.90;80.59;101230.91;4994953;28;19913;-77
2021/12/22 03:38:34;;;;;;;;;;;;;;;-2.84;80.47;101236.63;4994941;28;20410;-77
2021/12/22 03:40:59;;;;;;;;;;;;;;;-2.92;80.02;101236.28;4995109;28;20280;-77
2021/12/22 03:43:25;;;;;;;;;;;;;;;-2.86;81.00;101225.31;4995135;28;19917;-77
2021/12/22 03:45:50;;;;;;;;;;;;;;;-2.85;81.27;101224.38;4994930;28;19913;-77
2021/12/22 03:48:17;;;;;;;;;;;;;;;-2.86;81.14;101232.38;4995148;28;20336;-78
2021/12/22 03:50:42;;;;;;;;;;;;;;;-2.74;81.73;101233.41;4994796;28;19914;-78
2021/12/22 03:53:08;;;;;;;;;;;;;;;-2.72;80.45;101224.44;4994816;28;19936;-77
2021/12/22 03:55:33;;;;;;;;;;;;;;;-2.69;80.96;101240.06;4994385;28;19925;-77
2021/12/22 03:57:58;;;;;;;;;;;;;;;-2.61;80.83;101235.13;4994327;28;20360;-77
2021/12/22 04:00:23;;;;;;;;;;;;;;;-2.63;80.89;101234.38;4994212;28;19991;-78
2021/12/22 04:02:49;;;;;;;;;;;;;;;-2.61;80.32;101236.91;4994561;28;19914;-77
2021/12/22 04:05:14;;;;;;;;;;;;;;;-2.60;80.61;101235.97;4994539;28;20452;-78
2021/12/22 04:07:39;;;;;;;;;;;;;;;-2.56;80.61;101229.56;4994367;28;19917;-77
2021/12/22 04:10:19;;;;;;;;;;;;;;;-2.62;79.86;101230.78;4994460;28;19924;-77
2021/12/22 04:12:44;;;;;;;;;;;;;;;-2.65;80.16;101238.91;4977120;28;20004;-78
2021/12/22 04:15:09;;;;;;;;;;;;;;;-2.62;79.87;101248.41;4994569;28;20009;-77
2021/12/22 04:17:35;;;;;;;;;;;;;;;-2.61;80.09;101247.47;4994150;28;19972;-77
2021/12/22 04:20:00;;;;;;;;;;;;;;;-2.73;80.51;101259.69;4993895;28;19914;-77
2021/12/22 04:22:25;;;;;;;;;;;;;;;-2.73;80.18;101257.03;4993510;28;19964;-77
2021/12/22 04:24:50;;;;;;;;;;;;;;;-2.79;80.71;101252.16;4993243;28;19964;-76
2021/12/22 04:27:16;;;;;;;;;;;;;;;-2.67;80.93;101251.34;4993326;28;19928;-76
2021/12/22 04:29:41;;;;;;;;;;;;;;;-2.66;80.33;101247.75;4993221;28;20013;-76
2021/12/22 04:32:06;;;;;;;;;;;;;;;-2.63;80.66;101255.47;4993404;28;20008;-76
2021/12/22 04:34:31;;;;;;;;;;;;;;;-2.58;80.33;101255.19;4993082;28;19964;-76
2021/12/22 04:36:57;;;;;;;;;;;;;;;-2.59;80.03;101259.63;4993345;28;20005;-76
2021/12/22 04:39:22;;;;;;;;;;;;;;;-2.56;80.34;101261.22;4993177;28;19913;-76
2021/12/22 04:41:48;;;;;;;;;;;;;;;-2.52;79.92;101262.72;4993026;28;19952;-76
2021/12/22 04:44:13;;;;;;;;;;;;;;;-2.49;79.73;101257.19;4996076;28;20265;-76
2021/12/22 04:46:38;;;;;;;;;;;;;;;-2.65;80.01;101254.72;4996803;28;19920;-76
2021/12/22 04:49:04;;;;;;;;;;;;;;;-2.58;79.89;101256.03;4996633;28;20272;-76
2021/12/22 04:51:31;;;;;;;;;;;;;;;-2.69;80.10;101258.53;4996484;28;19913;-76
2021/12/22 04:56:55;;;;;;;;;;;;;;;-2.57;80.55;101257.72;4952930;28;20012;-76
2021/12/22 04:59:20;;;;;;;;;;;;;;;-2.68;80.25;101254.91;4996532;28;20329;-76
2021/12/22 05:01:45;;;;;;;;;;;;;;;-2.57;80.27;101254.25;4996225;28;19922;-78
2021/12/22 05:04:11;;;;;;;;;;;;;;;-2.62;79.18;101251.03;4996416;28;20377;-77
2021/12/22 05:06:36;;;;;;;;;;;;;;;-2.60;79.89;101241.25;4998039;28;19921;-78
2021/12/22 05:09:05;;;;;;;;;;;;;;;-2.74;79.41;101243.94;4980689;28;19913;-79
2021/12/22 05:11:31;;;;;;;;;;;;;;;-2.76;80.19;101243.19;5001866;28;20264;-78
2021/12/22 05:13:56;;;;;;;;;;;;;;;-2.62;80.06;101233.44;5002624;28;19917;-78
2021/12/22 05:16:21;;;;;;;;;;;;;;;-2.64;80.67;101229.19;5001894;28;20368;-79
2021/12/22 05:18:54;;;;;;;;;;;;;;;-2.68;78.87;101231.19;5001582;28;19944;-78
2021/12/22 05:21:21;;;;;;;;;;;;;;;-2.70;79.23;101233.09;4965524;28;1075020;-78
2021/12/22 05:23:47;;;;;;;;;;;;;;;-2.73;79.33;101230.66;5002567;28;20328;-77
2021/12/22 05:26:12;;;;;;;;;;;;;;;-2.62;79.20;101233.44;5002584;28;19914;-78
2021/12/22 05:28:38;;;;;;;;;;;;;;;-2.70;80.28;101230.47;5001923;28;19920;-77
2021/12/22 05:31:03;;;;;;;;;;;;;;;-2.66;79.60;101237.22;4998492;28;19914;-77
2021/12/22 05:33:28;;;;;;;;;;;;;;;-2.72;79.54;101242.91;4997580;28;20277;-76
2021/12/22 05:35:53;;;;;;;;;;;;;;;-2.69;79.43;101240.06;4997866;28;19913;-79
2021/12/22 05:38:19;;;;;;;;;;;;;;;-2.72;78.69;101242.06;4998314;28;19920;-78
2021/12/22 05:40:44;;;;;;;;;;;;;;;-2.86;80.28;101232.38;4998342;28;19964;-78
2021/12/22 05:43:09;;;;;;;;;;;;;;;-2.81;80.20;101236.41;4981643;28;20276;-78
2021/12/22 05:45:34;;;;;;;;;;;;;;;-2.71;79.61;101231.41;4999550;28;19922;-79
2021/12/22 05:48:00;;;;;;;;;;;;;;;-2.77;79.83;101226.53;4999833;28;20265;-78
2021/12/22 05:50:25;;;;;;;;;;;;;;;-2.78;78.93;101218.72;4999991;28;19918;-78
2021/12/22 05:52:51;;;;;;;;;;;;;;;-2.91;78.78;101210.75;4999643;28;19913;-78
2021/12/22 05:55:16;;;;;;;;;;;;;;;-3.11;78.77;101211.19;4997980;28;19933;-77
2021/12/22 05:57:41;;;;;;;;;;;;;;;-3.29;79.78;101207.94;4997890;28;19921;-78
2021/12/22 06:00:07;;;;;;;;;;;;;;;-3.32;79.76;101208.13;4998083;28;19918;-78
2021/12/22 06:02:32;;;;;;;;;;;;;;;-3.37;80.26;101205.78;4998646;28;19913;-78
2021/12/22 06:04:57;;;;;;;;;;;;;;;-3.39;81.24;101205.03;4998188;28;19913;-78
2021/12/22 06:07:22;;;;;;;;;;;;;;;-3.40;80.45;101211.22;4999362;28;19918;-82
2021/12/22 06:09:48;;;;;;;;;;;;;;;-3.43;80.89;101213.25;4998351;28;19925;-78
2021/12/22 06:12:13;;;;;;;;;;;;;;;-3.44;81.05;101204.47;4997450;28;19914;-77
2021/12/22 06:14:38;;;;;;;;;;;;;;;-3.51;80.33;101204.00;4998076;28;20008;-78
2021/12/22 06:17:04;;;;;;;;;;;;;;;-3.52;81.20;101204.09;4981035;28;19957;-78
2021/12/22 06:19:29;;;;;;;;;;;;;;;-3.46;81.25;101209.00;4998541;28;19921;-78
2021/12/22 06:21:54;;;;;;;;;;;;;;;-3.47;80.33;101206.47;4997245;28;19944;-80
2021/12/22 06:24:19;;;;;;;;;;;;;;;-3.50;80.39;101195.16;4998505;28;19918;-78
2021/12/22 06:26:44;;;;;;;;;;;;;;;-3.51;80.50;101195.25;4998445;28;19918;-78
2021/12/22 06:29:10;;;;;;;;;;;;;;;-3.58;81.00;101193.94;4999306;28;19913;-79
2021/12/22 06:31:35;;;;;;;;;;;;;;;-3.56;81.31;101195.53;4981804;28;19924;-79
2021/12/22 06:34:00;;;;;;;;;;;;;;;-3.54;81.27;101190.19;4998663;28;20013;-80
2021/12/22 06:36:26;;;;;;;;;;;;;;;-3.55;80.55;101193.75;4999798;28;19964;-79
2021/12/22 06:38:51;;;;;;;;;;;;;;;-3.49;80.65;101196.00;4998487;28;20307;-79
2021/12/22 06:41:16;;;;;;;;;;;;;;;-3.59;81.74;101194.91;4999419;28;20316;-79
2021/12/22 06:43:41;;;;;;;;;;;;;;;-3.51;81.43;101196.09;4998925;28;20047;-79
2021/12/22 06:46:07;;;;;;;;;;;;;;;-3.39;80.76;101201.53;4998901;28;19921;-78
2021/12/22 06:48:33;;;;;;;;;;;;;;;-3.38;81.24;101195.31;4998836;28;19920;-79
2021/12/22 06:50:58;;;;;;;;;;;;;;;-3.37;80.36;101189.13;4998862;28;20007;-80
2021/12/22 06:53:23;;;;;;;;;;;;;;;-3.18;84.39;101193.13;4997384;28;19917;-78
2021/12/22 06:55:48;;;;;;;;;;;;;;;-3.28;81.14;101189.41;4998665;28;19917;-79
2021/12/22 06:58:14;;;;;;;;;;;;;;;-3.23;80.00;101181.19;4999212;28;19914;-78
2021/12/22 07:00:39;;;;;;;;;;;;;;;-3.24;79.78;101183.00;4998614;28;19921;-78
2021/12/22 07:03:05;;;;;;;;;;;;;;;-3.32;79.86;101177.34;4999322;28;19929;-79
2021/12/22 07:05:31;;;;;;;;;;;;;;;-3.27;79.54;101177.06;4999243;28;20015;-79
2021/12/22 07:07:57;;;;;;;;;;;;;;;-3.30;78.81;101172.84;5000302;28;19914;-80
2021/12/22 07:10:22;;;;;;;;;;;;;;;-3.39;79.21;101167.28;5001073;28;19914;-79
2021/12/22 07:12:48;;;;;;;;;;;;;;;-3.41;79.55;101167.41;5001118;28;20384;-79
2021/12/22 07:15:14;;;;;;;;;;;;;;;-3.36;79.95;101162.66;5000578;28;19914;-79
2021/12/22 07:17:44;;;;;;;;;;;;;;;-3.30;79.23;101161.44;5003152;28;19913;-79
2021/12/22 07:20:09;;;;;;;;;;;;;;;-3.43;80.25;101155.28;5002399;28;19925;-79
2021/12/22 07:22:35;;;;;;;;;;;;;;;-3.44;79.68;101162.34;5003615;28;19913;-79
2021/12/22 07:25:01;;;;;;;;;;;;;;;-3.50;80.22;101160.06;4986228;28;19913;-79
2021/12/22 07:27:26;;;;;;;;;;;;;;;-3.55;80.07;101170.91;5003161;28;19940;-80
2021/12/22 07:29:51;;;;;;;;;;;;;;;-3.54;79.70;101164.69;5002793;28;19914;-80
2021/12/22 07:32:16;;;;;;;;;;;;;;;-3.25;79.23;101160.22;5003672;28;19914;-80
2021/12/22 07:34:46;;;;;;;;;;;;;;;-3.06;78.34;101172.22;5007907;28;19913;-79
2021/12/22 07:37:19;;;;;;;;;;;;;;;-2.71;78.67;101168.09;5007199;28;19948;-80
2021/12/22 07:39:44;;;;;;;;;;;;;;;-2.55;78.36;101167.91;5006303;28;20009;-79
2021/12/22 07:42:09;;;;;;;;;;;;;;;-2.18;78.25;101167.13;4999298;28;19959;-78
2021/12/22 07:44:34;;;;;;;;;;;;;;;-2.15;76.37;101164.25;4981827;28;19918;-78
2021/12/22 07:47:00;;;;;;;;;;;;;;;-2.00;76.61;101165.00;4998122;28;19913;-79
2021/12/22 07:49:25;;;;;;;;;;;;;;;-1.94;75.85;101166.34;4998230;28;19985;-80
2021/12/22 07:51:50;;;;;;;;;;;;;;;-1.85;75.51;101176.31;4998079;28;19945;-78
2021/12/22 07:54:15;;;;;;;;;;;;;;;-1.55;76.52;101171.50;4999420;28;19918;-79
2021/12/22 07:56:41;;;;;;;;;;;;;;;-1.49;76.37;101176.34;4998623;28;19917;-79
2021/12/22 07:59:06;;;;;;;;;;;;;;;-1.32;74.63;101183.06;5000998;28;20372;-80
2021/12/22 08:01:32;;;;;;;;;;;;;;;-1.17;76.18;101174.03;5002863;28;19914;-79
2021/12/22 08:03:58;;;;;;;;;;;;;;;-1.20;74.47;101171.59;5000221;28;19949;-79
2021/12/22 08:06:23;;;;;;;;;;;;;;;-1.33;75.24;101184.03;5001535;28;19936;-82
2021/12/22 08:08:48;;;;;;;;;;;;;;;-1.31;74.97;101184.75;5002919;28;20276;-79
2021/12/22 08:11:13;;;;;;;;;;;;;;;-1.42;75.62;101189.94;5001212;28;20400;-79
2021/12/22 08:13:41;;;;;;;;;;;;;;;-1.40;76.46;101194.19;4997982;28;19913;-79
2021/12/22 08:16:06;;;;;;;;;;;;;;;-0.89;76.87;101190.50;4999181;28;19964;-79
2021/12/22 08:18:31;;;;;;;;;;;;;;;-1.02;76.20;101190.56;4999172;28;19914;-79
2021/12/22 08:20:57;;;;;;;;;;;;;;;-0.98;74.81;101194.69;4977507;28;19918;-79
2021/12/22 08:23:22;;;;;;;;;;;;;;;-1.01;75.34;101194.06;4978424;28;19914;-78
2021/12/22 08:25:48;;;;;;;;;;;;;;;-1.09;75.92;101187.56;4978802;28;20352;-78
2021/12/22 08:28:13;;;;;;;;;;;;;;;-0.86;75.95;101192.94;4978217;28;19918;-79
2021/12/22 08:30:38;;;;;;;;;;;;;;;-0.75;75.24;101195.66;4978326;28;20412;-79
2021/12/22 08:33:15;;;;;;;;;;;;;;;-0.80;75.32;101193.34;4980028;28;19914;-79
2021/12/22 08:39:06;;;;;;;;;;;;;;;-0.90;74.31;101183.56;4980421;28;20302;-79
2021/12/22 08:41:12;;;;;;;;;;;;;;;-0.64;72.53;101179.81;4974855;28;20009;-82
2021/12/22 08:43:38;;;;;;;;;;;;;;;-0.56;71.61;101179.25;4981868;28;20045;-79
2021/12/22 08:46:03;;;;;;;;;;;;;;;-0.70;72.78;101167.88;4980790;28;19917;-79
2021/12/22 08:48:28;;;;;;;;;;;;;;;-0.54;71.89;101166.75;4981536;28;19922;-79
2021/12/22 08:50:53;;;;;;;;;;;;;;;-0.49;71.99;101170.72;4994814;28;19976;-79
2021/12/22 08:53:19;;;;;;;;;;;;;;;-0.54;71.87;101169.41;4980370;28;20261;-79
2021/12/22 08:55:45;;;;;;;;;;;;;;;-0.55;71.82;101173.00;4981860;28;19914;-82
2021/12/22 08:58:10;;;;;;;;;;;;;;;-0.58;71.65;101168.78;4981690;28;20373;-79
2021/12/22 09:00:38;;;;;;;;;;;;;;;-0.66;72.54;101170.28;4981994;28;19965;-78
2021/12/22 09:03:03;;;;;;;;;;;;;;;-0.67;72.53;101182.69;4980532;28;19945;-79
2021/12/22 09:05:28;;;;;;;;;;;;;;;-0.71;72.59;101166.19;4980061;28;19914;-79
2021/12/22 09:07:54;;;;;;;;;;;;;;;-0.69;73.02;101168.72;4995124;28;19953;-78
2021/12/22 09:10:19;;;;;;;;;;;;;;;-0.65;73.13;101169.34;4980407;28;20394;-78
2021/12/22 09:12:44;;;;;;;;;;;;;;;-0.58;72.72;101173.22;4978127;28;19917;-79
2021/12/22 09:15:09;;;;;;;;;;;;;;;-0.56;72.37;101158.06;4979930;28;19914;-82
2021/12/22 09:17:35;;;;;;;;;;;;;;;-0.45;73.48;101161.59;4994973;28;19922;-78
2021/12/22 09:20:00;;;;;;;;;;;;;;;-0.53;72.76;101169.25;4981610;28;19914;-79
2021/12/22 09:22:26;;;;;;;;;;;;;;;-0.50;72.73;101163.72;5002405;28;19925;-79
2021/12/22 09:24:51;;;;;;;;;;;;;;;-0.41;72.34;101168.34;4999140;28;19921;-79
2021/12/22 09:27:17;;;;;;;;;;;;;;;-0.43;72.95;101170.25;4982914;28;19913;-78
2021/12/22 09:29:42;;;;;;;;;;;;;;;-0.37;72.40;101168.97;5001334;28;19914;-79
2021/12/22 09:32:08;;;;;;;;;;;;;;;-0.20;73.40;101159.72;4985202;28;19914;-80
2021/12/22 09:34:33;;;;;;;;;;;;;;;-0.11;72.84;101153.72;5002009;28;19941;-78
2021/12/22 09:36:59;;;;;;;;;;;;;;;-0.01;73.29;101165.31;5000663;28;19937;-78
2021/12/22 09:39:24;;;;;;;;;;;;;;;0.17;71.67;101163.88;5000535;28;19968;-81
2021/12/22 09:41:50;;;;;;;;;;;;;;;0.11;70.86;101151.09;5001799;28;20303;-80
2021/12/22 09:44:15;;;;;;;;;;;;;;;0.30;69.64;101166.41;5001673;28;19914;-80
2021/12/22 09:46:41;;;;;;;;;;;;;;;0.31;69.93;101153.03;5003993;28;19984;-81
2021/12/22 09:49:19;;;;;;;;;;;;;;;0.26;69.88;101151.69;5004271;28;19917;-81
2021/12/22 09:54:30;;;;;;;;;;;;;;;0.62;67.14;101143.47;5004179;28;19949;-80
2021/12/22 09:56:55;;;;;;;;;;;;;;;0.62;67.52;101145.25;5003484;28;19914;-80
2021/12/22 09:59:20;;;;;;;;;;;;;;;0.73;66.77;101145.22;5004839;28;19925;-80
2021/12/22 10:01:45;;;;;;;;;;;;;;;0.61;67.20;101157.69;5001642;28;20015;-80
2021/12/22 10:04:16;;;;;;;;;;;;;;;0.75;66.60;101164.53;5003285;28;19914;-81
2021/12/22 10:06:41;;;;;;;;;;;;;;;0.81;66.16;101153.44;5002107;28;20012;-81
2021/12/22 10:09:07;;;;;;;;;;;;;;;0.78;67.13;101151.03;5002616;28;19969;-80
2021/12/22 10:11:33;;;;;;;;;;;;;;;1.18;64.82;101148.59;5003886;28;19914;-81
2021/12/22 10:13:58;;;;;;;;;;;;;;;1.14;66.15;101154.28;5003948;28;20280;-80
2021/12/22 10:16:25;;;;;;;;;;;;;;;1.18;65.12;101150.41;5001440;28;19918;-79
2021/12/22 10:19:04;;;;;;;;;;;;;;;1.20;64.94;101149.31;5002432;28;19914;-79
2021/12/22 10:21:29;;;;;;;;;;;;;;;1.17;64.41;101149.56;5004486;28;20268;-80
2021/12/22 10:23:55;;;;;;;;;;;;;;;1.12;65.42;101140.28;5004178;28;19928;-81
2021/12/22 10:26:26;;;;;;;;;;;;;;;1.19;64.70;101133.53;5005916;28;20348;-80
2021/12/22 10:28:53;;;;;;;;;;;;;;;1.39;65.20;101132.72;5005712;28;19936;-81
2021/12/22 10:31:19;;;;;;;;;;;;;;;1.49;63.78;101132.75;5006742;28;19914;-82
2021/12/22 10:33:45;;;;;;;;;;;;;;;1.48;63.55;101123.13;5007703;28;19925;-82
2021/12/22 10:36:14;;;;;;;;;;;;;;;1.69;63.58;101134.59;5006982;28;19918;-79
2021/12/22 10:38:47;;;;;;;;;;;;;;;1.38;62.54;101133.69;5004262;28;19921;-79
2021/12/22 10:41:12;;;;;;;;;;;;;;;1.33;64.31;101138.53;5000594;28;19913;-79
2021/12/22 10:43:41;;;;;;;;;;;;;;;1.48;63.49;101128.41;4999805;28;20315;-78
2021/12/22 10:46:07;;;;;;;;;;;;;;;1.44;63.48;101122.53;5002745;28;19919;-80
2021/12/22 10:51:28;;;;;;;;;;;;;;;1.79;62.95;101114.25;5003572;28;19920;-79
2021/12/22 10:53:54;;;;;;;;;;;;;;;1.73;62.21;101110.28;5004330;28;19918;-79
2021/12/22 10:56:42;;;;;;;;;;;;;;;1.69;62.24;101111.53;5002814;28;19949;-83
2021/12/22 10:59:18;;;;;;;;;;;;;;;1.91;62.20;101104.38;5003775;28;19914;-80
2021/12/22 11:01:53;;;;;;;;;;;;;;;1.75;63.00;101107.50;5006708;28;19924;-82
2021/12/22 11:04:23;;;;;;;;;;;;;;;1.65;62.74;101102.13;5009047;28;19913;-81
2021/12/22 11:06:50;;;;;;;;;;;;;;;1.84;62.28;101095.22;5007093;28;19917;-78
2021/12/22 11:09:16;;;;;;;;;;;;;;;1.61;62.22;101098.03;5003330;28;19918;-78
2021/12/22 11:11:46;;;;;;;;;;;;;;;1.70;62.14;101096.41;4987057;28;19917;-78
2021/12/22 11:14:13;;;;;;;;;;;;;;;1.85;61.55;101096.91;5003182;28;19949;-79
2021/12/22 11:16:55;;;;;;;;;;;;;;;1.96;61.44;101096.84;5004057;28;19914;-79
2021/12/22 11:19:21;;;;;;;;;;;;;;;1.82;61.50;101097.16;4986203;28;19937;-79
2021/12/22 11:22:03;;;;;;;;;;;;;;;1.89;61.32;101095.69;5004895;28;19921;-79
2021/12/22 11:24:30;;;;;;;;;;;;;;;1.86;61.53;101091.47;4988184;28;20386;-79
2021/12/22 11:26:55;;;;;;;;;;;;;;;1.85;61.04;101089.78;5002725;28;19913;-78
2021/12/22 11:29:21;;;;;;;;;;;;;;;1.97;60.29;101088.72;5003571;28;19920;-79
2021/12/22 11:31:47;;;;;;;;;;;;;;;2.14;60.73;101079.28;5003476;28;20384;-79
2021/12/22 11:34:14;;;;;;;;;;;;;;;2.15;59.87;101072.97;5003529;28;20044;-80
2021/12/22 11:36:40;;;;;;;;;;;;;;;2.30;59.57;101078.78;5003312;28;19913;-79
2021/12/22 11:39:05;;;;;;;;;;;;;;;2.15;60.51;101078.28;5002834;28;19936;-79
2021/12/22 11:41:31;;;;;;;;;;;;;;;2.05;59.42;101069.44;5002221;28;19913;-79
2021/12/22 11:43:57;;;;;;;;;;;;;;;2.16;59.79;101056.03;5003084;28;19918;-79
2021/12/22 11:46:25;;;;;;;;;;;;;;;2.01;59.68;101058.25;5004001;28;19949;-79
2021/12/22 11:48:51;;;;;;;;;;;;;;;1.89;59.62;101054.00;5004051;28;19913;-81
2021/12/22 11:51:24;;;;;;;;;;;;;;;2.25;59.00;101046.44;5001282;28;19913;-79
2021/12/22 11:53:50;;;;;;;;;;;;;;;2.18;59.93;101048.78;5002511;28;19921;-79
2021/12/22 11:56:34;;;;;;;;;;;;;;;2.19;57.95;101047.81;5003121;28;19914;-79
2021/12/22 11:59:00;;;;;;;;;;;;;;;2.26;58.53;101048.13;5001882;28;20352;-78
2021/12/22 12:01:25;;;;;;;;;;;;;;;2.27;57.68;101041.81;5000687;28;19988;-79
2021/12/22 12:04:09;;;;;;;;;;;;;;;2.42;56.81;101041.28;5001827;28;19920;-78
2021/12/22 12:06:45;;;;;;;;;;;;;;;2.49;56.84;101027.44;5002054;28;19917;-79
2021/12/22 12:09:11;;;;;;;;;;;;;;;2.41;57.59;101031.63;5003867;28;19913;-79
2021/12/22 12:11:50;;;;;;;;;;;;;;;2.41;56.19;101030.78;4986289;28;19945;-81
2021/12/22 12:14:38;;;;;;;;;;;;;;;2.28;57.73;101038.19;5000533;28;19918;-79
2021/12/22 12:23:24;;;;;;;;;;;;;;;2.19;57.20;101025.69;5000229;28;19921;-77
2021/12/22 12:25:49;;;;;;;;;;;;;;;2.04;56.85;101022.56;4999684;28;19960;-79
2021/12/22 12:28:15;;;;;;;;;;;;;;;2.07;56.39;101025.81;5000354;28;19917;-79
2021/12/22 12:30:48;;;;;;;;;;;;;;;2.21;57.56;101018.44;5001485;28;19913;-78
2021/12/22 12:33:22;;;;;;;;;;;;;;;2.18;54.83;101016.03;5000826;28;19914;-78
2021/12/22 12:36:04;;;;;;;;;;;;;;;2.24;55.06;101024.31;5001193;28;20012;-78
2021/12/22 12:38:42;;;;;;;;;;;;;;;2.16;55.09;101028.63;5000748;28;19972;-78
2021/12/22 12:41:11;;;;;;;;;;;;;;;1.95;55.66;101012.78;5001368;28;19917;-78
2021/12/22 12:46:35;;;;;;;;;;;;;;;2.08;55.87;101016.88;5001163;28;19914;-79
2021/12/22 12:49:04;;;;;;;;;;;;;;;2.19;56.44;101010.59;5000843;28;19949;-79
2021/12/22 12:51:32;;;;;;;;;;;;;;;2.21;56.38;101010.44;5000124;28;19957;-79
2021/12/22 12:54:06;;;;;;;;;;;;;;;2.25;55.89;101004.72;5000163;28;20377;-78
2021/12/22 12:56:38;;;;;;;;;;;;;;;2.20;55.02;101006.94;5000222;28;19914;-79
2021/12/22 12:59:06;;;;;;;;;;;;;;;2.15;55.97;101003.03;5002207;28;19914;-79
2021/12/22 13:01:47;;;;;;;;;;;;;;;2.23;56.72;101011.16;4999939;28;19932;-79
2021/12/22 13:04:27;;;;;;;;;;;;;;;2.30;55.91;101007.81;5000710;28;19921;-78
2021/12/22 13:06:54;;;;;;;;;;;;;;;2.23;55.47;100995.19;5001108;28;19924;-78
2021/12/22 13:09:39;;;;;;;;;;;;;;;2.20;55.01;100996.31;4999944;28;19914;-79
2021/12/22 13:17:22;;;;;;;;;;;;;;;2.42;53.93;100990.75;5002376;28;19924;-79
2021/12/22 13:19:49;;;;;;;;;;;;;;;2.26;54.64;100989.63;5002157;28;20372;-79
2021/12/22 13:22:18;;;;;;;;;;;;;;;2.20;53.63;100977.69;5000086;28;19913;-78
2021/12/22 13:24:43;;;;;;;;;;;;;;;2.15;54.10;100974.59;4999082;28;19913;-79
2021/12/22 13:27:09;;;;;;;;;;;;;;;2.12;54.49;100980.22;5000315;28;19924;-79